Time;durP1;ratioP1;P1;durP2;ratioP2;P2;SDS_P1;SDS_P2;PMS_P1;PMS_P2;Temp;Humidity;BMP_temperature;BMP_pressure;BME280_temperature;BME280_humidity;BME280_pressure;Samples;Min_cycle;Max_cycle;Signal;HPM_P1;HPM_P2
2021/11/07 00:01:53;;;;;;;31.63;6.38;;;;;;;;;;5046671;28;20045;-73
2021/11/07 00:07:09;;;;;;;34.35;7.13;;;;;;;;;;5042322;28;20063;-73
2021/11/07 00:09:42;;;;;;;31.55;7.85;;;;;;;;;;5046043;28;20044;-73
2021/11/07 00:12:14;;;;;;;36.28;7.35;;;;;;;;;;5044616;28;20087;-73
2021/11/07 00:14:41;;;;;;;29.92;7.18;;;;;;;;;;5074937;28;20495;-73
2021/11/07 00:17:07;;;;;;;35.72;7.60;;;;;;;;;;5032672;28;20100;-73
2021/11/07 00:19:38;;;;;;;54.22;9.52;;;;;;;;;;5047127;28;20044;-73
2021/11/07 00:22:11;;;;;;;42.83;7.55;;;;;;;;;;5059982;28;20048;-73
2021/11/07 00:24:47;;;;;;;45.28;9.85;;;;;;;;;;5071307;28;20049;-73
2021/11/07 00:27:24;;;;;;;54.10;9.05;;;;;;;;;;5043472;28;20052;-73
2021/11/07 00:37:37;;;;;;;49.05;8.55;;;;;;;;;;5068511;28;20387;-73
2021/11/07 00:42:47;;;;;;;47.35;8.45;;;;;;;;;;5049122;28;20055;-73
2021/11/07 00:47:49;;;;;;;39.25;8.07;;;;;;;;;;5042774;28;19927;-73
2021/11/07 00:50:18;;;;;;;38.90;7.00;;;;;;;;;;5044861;28;20060;-73
2021/11/07 00:52:55;;;;;;;43.20;7.15;;;;;;;;;;5035736;28;20045;-73
2021/11/07 00:55:37;;;;;;;41.92;7.05;;;;;;;;;;5038514;28;20053;-73
2021/11/07 00:58:09;;;;;;;41.03;9.13;;;;;;;;;;5060171;28;20108;-73
2021/11/07 01:00:47;;;;;;;35.13;7.50;;;;;;;;;;5042809;28;20394;-73
2021/11/07 01:03:17;;;;;;;31.65;6.18;;;;;;;;;;5071671;28;20484;-73
2021/11/07 01:05:43;;;;;;;41.30;7.20;;;;;;;;;;5047929;28;20053;-73
2021/11/07 01:08:09;;;;;;;32.33;6.93;;;;;;;;;;5049355;28;20036;-73
2021/11/07 01:10:36;;;;;;;32.88;6.88;;;;;;;;;;5076240;28;20043;-73
2021/11/07 01:13:04;;;;;;;35.08;6.63;;;;;;;;;;5059009;28;20037;-73
2021/11/07 01:15:31;;;;;;;37.15;7.38;;;;;;;;;;5043033;28;20129;-73
2021/11/07 01:17:57;;;;;;;36.25;6.78;;;;;;;;;;5043713;28;20067;-73
2021/11/07 01:20:27;;;;;;;29.33;7.00;;;;;;;;;;5046355;28;20045;-73
2021/11/07 01:22:59;;;;;;;29.83;5.55;;;;;;;;;;5044406;28;20040;-73
2021/11/07 01:25:29;;;;;;;30.08;5.40;;;;;;;;;;5047681;28;20045;-73
2021/11/07 01:27:57;;;;;;;29.98;5.70;;;;;;;;;;5039328;28;20054;-73
2021/11/07 01:30:26;;;;;;;28.35;4.88;;;;;;;;;;5048621;28;20050;-73
2021/11/07 01:33:00;;;;;;;24.48;5.28;;;;;;;;;;5044651;28;20045;-73
2021/11/07 01:35:53;;;;;;;35.25;6.85;;;;;;;;;;5045938;28;20163;-73
2021/11/07 01:38:27;;;;;;;33.38;6.97;;;;;;;;;;5045037;28;20041;-73
2021/11/07 01:41:02;;;;;;;30.92;6.93;;;;;;;;;;5041029;28;20049;-73
2021/11/07 01:43:28;;;;;;;35.72;6.65;;;;;;;;;;5039956;28;20056;-73
2021/11/07 01:46:10;;;;;;;20.75;5.40;;;;;;;;;;5044605;28;20037;-73
2021/11/07 01:48:51;;;;;;;45.13;6.65;;;;;;;;;;5041000;28;20040;-73
2021/11/07 01:51:17;;;;;;;25.30;4.97;;;;;;;;;;5045728;28;20176;-73
2021/11/07 01:53:45;;;;;;;26.35;5.07;;;;;;;;;;5041598;28;20037;-73
2021/11/07 01:56:13;;;;;;;23.95;4.97;;;;;;;;;;5042269;28;20439;-73
2021/11/07 01:58:40;;;;;;;28.55;6.50;;;;;;;;;;5043164;28;20481;-73
2021/11/07 02:01:07;;;;;;;36.03;7.43;;;;;;;;;;5045535;28;20060;-73
2021/11/07 02:03:33;;;;;;;29.70;5.18;;;;;;;;;;5047553;28;20049;-73
2021/11/07 02:06:00;;;;;;;26.70;5.22;;;;;;;;;;5042891;28;20130;-73
2021/11/07 02:08:27;;;;;;;30.20;6.43;;;;;;;;;;5040380;28;20361;-73
2021/11/07 02:10:54;;;;;;;33.33;5.88;;;;;;;;;;5077182;28;20181;-73
2021/11/07 02:13:21;;;;;;;34.13;5.40;;;;;;;;;;5043281;28;20692;-73
2021/11/07 02:15:48;;;;;;;24.20;4.78;;;;;;;;;;5048436;28;20059;-73
2021/11/07 02:18:16;;;;;;;33.17;6.95;;;;;;;;;;5043192;28;20049;-73
2021/11/07 02:20:43;;;;;;;33.22;5.97;;;;;;;;;;5044623;28;20121;-73
2021/11/07 02:23:12;;;;;;;24.45;5.72;;;;;;;;;;5046742;28;20124;-73
2021/11/07 02:25:39;;;;;;;33.15;6.32;;;;;;;;;;5043800;28;20408;-73
2021/11/07 02:28:06;;;;;;;30.67;5.43;;;;;;;;;;5041950;28;20464;-73
2021/11/07 02:30:32;;;;;;;32.03;5.45;;;;;;;;;;5044167;28;20133;-73
2021/11/07 02:32:59;;;;;;;41.17;6.28;;;;;;;;;;5042769;28;20037;-73
2021/11/07 02:35:26;;;;;;;29.13;5.03;;;;;;;;;;5040430;28;20067;-73
2021/11/07 02:37:53;;;;;;;38.60;7.32;;;;;;;;;;5046646;28;20037;-73
2021/11/07 02:40:20;;;;;;;36.47;6.70;;;;;;;;;;5046261;28;20098;-73
2021/11/07 02:42:46;;;;;;;32.50;7.18;;;;;;;;;;5059157;28;20808;-73
2021/11/07 02:45:14;;;;;;;35.95;6.65;;;;;;;;;;5045101;28;20451;-73
2021/11/07 02:47:40;;;;;;;39.47;9.15;;;;;;;;;;5042013;28;20397;-73
2021/11/07 02:50:08;;;;;;;46.30;6.45;;;;;;;;;;5039624;28;20049;-73
2021/11/07 02:52:35;;;;;;;34.75;7.20;;;;;;;;;;5043348;28;20039;-73
2021/11/07 02:55:01;;;;;;;27.45;6.53;;;;;;;;;;5045907;28;20033;-73
2021/11/07 02:57:27;;;;;;;21.70;5.40;;;;;;;;;;5044172;28;20041;-73
2021/11/07 02:59:59;;;;;;;26.05;4.93;;;;;;;;;;5042438;28;20080;-73
2021/11/07 03:02:27;;;;;;;26.85;4.72;;;;;;;;;;5047689;28;20050;-73
2021/11/07 03:04:53;;;;;;;31.48;5.22;;;;;;;;;;5037752;28;20548;-73
2021/11/07 03:07:21;;;;;;;28.73;4.45;;;;;;;;;;5036247;28;20037;-73
2021/11/07 03:09:47;;;;;;;29.52;3.90;;;;;;;;;;5076682;28;20053;-73
2021/11/07 03:12:14;;;;;;;25.20;4.10;;;;;;;;;;5044585;28;20447;-73
2021/11/07 03:14:42;;;;;;;25.67;5.10;;;;;;;;;;5041440;28;20504;-73
2021/11/07 03:17:10;;;;;;;27.73;4.45;;;;;;;;;;5057197;28;20045;-73
2021/11/07 03:19:37;;;;;;;22.70;4.50;;;;;;;;;;5046152;28;20044;-73
2021/11/07 03:22:06;;;;;;;22.50;3.35;;;;;;;;;;5047580;28;20388;-73
2021/11/07 03:24:32;;;;;;;26.17;5.30;;;;;;;;;;5044185;28;20045;-73
2021/11/07 03:26:59;;;;;;;21.60;3.55;;;;;;;;;;5042659;28;20045;-73
2021/11/07 03:29:33;;;;;;;14.77;2.88;;;;;;;;;;5043216;28;20542;-73
2021/11/07 03:32:07;;;;;;;;;;;;;;;;;;5043933;28;20480;-73
2021/11/07 03:34:35;;;;;;;23.90;3.97;;;;;;;;;;5042593;28;19921;-73
2021/11/07 03:37:05;;;;;;;28.83;4.57;;;;;;;;;;5044829;28;20498;-72
2021/11/07 03:39:34;;;;;;;23.23;3.80;;;;;;;;;;5044540;28;20049;-72
2021/11/07 03:42:01;;;;;;;19.30;3.55;;;;;;;;;;5045510;28;20041;-73
2021/11/07 03:44:27;;;;;;;20.45;3.05;;;;;;;;;;5045402;28;20048;-73
2021/11/07 03:46:55;;;;;;;26.92;4.03;;;;;;;;;;5045809;28;20515;-72
2021/11/07 03:49:22;;;;;;;24.92;4.22;;;;;;;;;;5062692;28;20053;-73
2021/11/07 03:51:48;;;;;;;21.70;4.22;;;;;;;;;;5050563;28;20059;-73
2021/11/07 03:54:16;;;;;;;24.75;4.05;;;;;;;;;;5045409;28;20053;-72
2021/11/07 03:56:42;;;;;;;26.88;5.38;;;;;;;;;;5076748;28;20103;-73
2021/11/07 03:59:09;;;;;;;27.67;5.35;;;;;;;;;;5049037;28;20037;-72
2021/11/07 04:01:36;;;;;;;29.40;4.72;;;;;;;;;;5055304;28;20469;-73
2021/11/07 04:04:04;;;;;;;27.33;4.55;;;;;;;;;;5044462;28;20056;-73
2021/11/07 04:06:30;;;;;;;25.20;5.28;;;;;;;;;;5047725;28;20044;-73
2021/11/07 04:08:56;;;;;;;31.48;4.45;;;;;;;;;;5039656;28;20503;-73
2021/11/07 04:11:23;;;;;;;30.88;5.75;;;;;;;;;;5069306;28;20065;-73
2021/11/07 04:13:49;;;;;;;27.08;4.22;;;;;;;;;;5038679;28;20393;-72
2021/11/07 04:16:16;;;;;;;32.42;5.15;;;;;;;;;;5034171;28;20045;-73
2021/11/07 04:18:44;;;;;;;22.77;4.97;;;;;;;;;;5043275;28;20042;-73
2021/11/07 04:21:10;;;;;;;21.67;4.22;;;;;;;;;;5047399;28;20357;-72
2021/11/07 04:23:36;;;;;;;26.45;4.55;;;;;;;;;;5048536;28;20059;-72
2021/11/07 04:26:03;;;;;;;22.77;4.60;;;;;;;;;;5044486;28;20330;-72
2021/11/07 04:28:30;;;;;;;30.45;3.90;;;;;;;;;;5047159;28;20417;-73
2021/11/07 04:30:57;;;;;;;23.40;4.45;;;;;;;;;;5049532;28;20041;-72
2021/11/07 04:33:24;;;;;;;21.98;3.40;;;;;;;;;;5048146;28;20508;-72
2021/11/07 04:35:50;;;;;;;21.65;4.40;;;;;;;;;;5047362;28;20396;-73
2021/11/07 04:38:16;;;;;;;17.70;2.92;;;;;;;;;;5049826;28;20493;-72
2021/11/07 04:40:43;;;;;;;18.33;3.50;;;;;;;;;;5045732;28;20033;-73
2021/11/07 04:43:10;;;;;;;16.02;3.25;;;;;;;;;;5041571;28;20143;-73
2021/11/07 04:45:36;;;;;;;21.42;2.60;;;;;;;;;;5048263;28;20037;-73
2021/11/07 04:48:04;;;;;;;16.60;2.60;;;;;;;;;;5034087;28;20571;-72
2021/11/07 04:50:30;;;;;;;18.67;3.25;;;;;;;;;;5047508;28;20049;-73
2021/11/07 04:53:00;;;;;;;27.17;3.58;;;;;;;;;;5066849;28;20045;-72
2021/11/07 04:55:26;;;;;;;23.05;3.63;;;;;;;;;;5047475;28;20083;-72
2021/11/07 04:57:52;;;;;;;14.48;2.80;;;;;;;;;;5044471;28;20477;-73
2021/11/07 05:00:21;;;;;;;22.52;3.38;;;;;;;;;;5048996;28;20045;-72
2021/11/07 05:02:48;;;;;;;23.45;3.95;;;;;;;;;;5050348;28;20049;-72
2021/11/07 05:05:16;;;;;;;27.05;4.30;;;;;;;;;;5047508;28;20444;-72
2021/11/07 05:07:42;;;;;;;22.88;3.60;;;;;;;;;;5040516;28;20061;-72
2021/11/07 05:10:09;;;;;;;21.23;3.70;;;;;;;;;;5033151;28;20045;-72
2021/11/07 05:12:35;;;;;;;17.58;2.67;;;;;;;;;;5045752;28;20065;-73
2021/11/07 05:15:02;;;;;;;14.25;2.33;;;;;;;;;;5046025;28;20103;-73
2021/11/07 05:17:29;;;;;;;17.63;2.42;;;;;;;;;;5045458;28;20041;-72
2021/11/07 05:19:55;;;;;;;19.38;3.70;;;;;;;;;;5037088;28;20114;-72
2021/11/07 05:22:21;;;;;;;15.20;3.35;;;;;;;;;;5036357;28;20128;-72
2021/11/07 05:24:47;;;;;;;21.73;3.08;;;;;;;;;;5039071;28;20045;-72
2021/11/07 05:27:15;;;;;;;19.65;3.25;;;;;;;;;;5074019;28;20048;-73
2021/11/07 05:29:41;;;;;;;21.98;3.50;;;;;;;;;;5043356;28;20045;-73
2021/11/07 05:32:08;;;;;;;19.20;3.17;;;;;;;;;;5033542;28;20459;-73
2021/11/07 05:34:36;;;;;;;20.63;3.08;;;;;;;;;;5045784;28;20040;-72
2021/11/07 05:37:02;;;;;;;28.65;3.70;;;;;;;;;;5042922;28;20053;-72
2021/11/07 05:39:29;;;;;;;22.25;3.13;;;;;;;;;;5042719;28;20053;-73
2021/11/07 05:41:55;;;;;;;17.67;2.60;;;;;;;;;;5046140;28;20506;-72
2021/11/07 05:44:21;;;;;;;22.38;3.15;;;;;;;;;;5039217;28;20128;-72
2021/11/07 05:46:47;;;;;;;14.05;2.67;;;;;;;;;;5041315;28;20452;-73
2021/11/07 05:49:14;;;;;;;16.05;2.67;;;;;;;;;;5044574;28;20049;-73
2021/11/07 05:51:40;;;;;;;21.55;3.30;;;;;;;;;;5043879;28;20433;-72
2021/11/07 05:54:06;;;;;;;18.55;3.25;;;;;;;;;;5048442;28;20044;-74
2021/11/07 05:56:33;;;;;;;24.83;4.28;;;;;;;;;;5045953;28;20492;-74
2021/11/07 05:58:59;;;;;;;23.38;3.63;;;;;;;;;;5045230;28;20427;-73
2021/11/07 06:01:26;;;;;;;16.92;3.75;;;;;;;;;;5043815;28;20370;-73
2021/11/07 06:03:52;;;;;;;18.83;3.28;;;;;;;;;;5050578;28;21713;-73
2021/11/07 06:06:19;;;;;;;15.52;2.88;;;;;;;;;;5038024;28;20051;-74
2021/11/07 06:08:45;;;;;;;24.23;3.20;;;;;;;;;;5046614;28;20075;-72
2021/11/07 06:11:11;;;;;;;27.73;3.72;;;;;;;;;;5072327;28;20131;-71
2021/11/07 06:13:38;;;;;;;19.13;4.35;;;;;;;;;;5039559;28;20051;-73
2021/11/07 06:16:04;;;;;;;18.33;3.55;;;;;;;;;;5036101;28;20041;-72
2021/11/07 06:18:31;;;;;;;25.65;4.15;;;;;;;;;;5057527;28;20128;-72
2021/11/07 06:20:57;;;;;;;18.85;3.90;;;;;;;;;;5070289;28;20063;-73
2021/11/07 06:23:24;;;;;;;22.90;3.88;;;;;;;;;;5041203;28;20053;-73
2021/11/07 06:25:50;;;;;;;25.13;3.90;;;;;;;;;;5034524;28;20085;-73
2021/11/07 06:28:17;;;;;;;27.40;3.70;;;;;;;;;;5045642;28;20045;-73
2021/11/07 06:30:48;;;;;;;19.88;3.75;;;;;;;;;;5045286;28;20107;-73
2021/11/07 06:33:15;;;;;;;18.85;3.00;;;;;;;;;;5061660;28;20121;-73
2021/11/07 06:35:41;;;;;;;20.52;4.10;;;;;;;;;;5041521;28;20120;-73
2021/11/07 06:38:08;;;;;;;20.42;3.13;;;;;;;;;;5048629;28;20079;-73
2021/11/07 06:40:34;;;;;;;15.48;2.40;;;;;;;;;;5048651;28;20129;-73
2021/11/07 06:43:01;;;;;;;18.55;3.15;;;;;;;;;;5075059;28;20117;-73
2021/11/07 06:45:27;;;;;;;19.60;3.10;;;;;;;;;;5046119;28;20148;-73
2021/11/07 06:47:54;;;;;;;16.52;3.08;;;;;;;;;;5041888;28;20049;-71
2021/11/07 06:50:21;;;;;;;23.20;3.33;;;;;;;;;;5054804;28;20045;-72
2021/11/07 06:52:48;;;;;;;21.33;3.75;;;;;;;;;;5037304;28;20164;-73
2021/11/07 06:55:17;;;;;;;21.85;4.32;;;;;;;;;;5041668;28;20037;-73
2021/11/07 06:57:43;;;;;;;21.83;3.45;;;;;;;;;;5041792;28;20057;-75
2021/11/07 07:00:13;;;;;;;19.00;3.42;;;;;;;;;;5041257;28;20045;-74
2021/11/07 07:02:40;;;;;;;24.63;3.30;;;;;;;;;;5070446;28;20405;-74
2021/11/07 07:05:07;;;;;;;19.15;4.70;;;;;;;;;;5040341;28;20103;-74
2021/11/07 07:07:36;;;;;;;27.38;3.92;;;;;;;;;;5039111;28;20041;-74
2021/11/07 07:10:05;;;;;;;25.48;5.15;;;;;;;;;;5040107;28;20049;-74
2021/11/07 07:12:39;;;;;;;18.33;2.83;;;;;;;;;;5042040;28;20033;-74
2021/11/07 07:15:12;;;;;;;22.40;3.63;;;;;;;;;;5039582;28;20052;-73
2021/11/07 07:17:48;;;;;;;21.85;3.90;;;;;;;;;;5047464;28;20041;-74
2021/11/07 07:25:45;;;;;;;27.48;4.53;;;;;;;;;;5035830;28;20512;-74
2021/11/07 07:31:10;;;;;;;20.50;4.30;;;;;;;;;;5043759;28;20048;-74
2021/11/07 07:33:41;;;;;;;25.63;4.40;;;;;;;;;;5052918;28;20076;-74
2021/11/07 07:36:07;;;;;;;22.98;4.40;;;;;;;;;;5049140;28;20073;-74
2021/11/07 07:38:33;;;;;;;25.33;4.20;;;;;;;;;;5047129;28;20034;-78
2021/11/07 07:40:59;;;;;;;26.15;4.45;;;;;;;;;;5064309;28;20072;-74
2021/11/07 07:43:26;;;;;;;27.73;3.95;;;;;;;;;;5052368;28;20041;-73
2021/11/07 07:45:55;;;;;;;25.50;3.58;;;;;;;;;;5054491;28;20040;-74
2021/11/07 07:48:22;;;;;;;29.40;7.18;;;;;;;;;;5054530;28;20124;-74
2021/11/07 07:50:48;;;;;;;20.60;4.63;;;;;;;;;;5054463;28;20081;-74
2021/11/07 07:53:15;;;;;;;27.05;3.50;;;;;;;;;;5053517;28;20048;-74
2021/11/07 07:55:41;;;;;;;40.53;6.38;;;;;;;;;;5053134;28;20067;-74
2021/11/07 07:58:07;;;;;;;28.85;4.35;;;;;;;;;;5053959;28;20052;-73
2021/11/07 08:00:33;;;;;;;29.08;4.10;;;;;;;;;;5053772;28;20102;-74
2021/11/07 08:03:00;;;;;;;25.85;4.82;;;;;;;;;;5054072;28;20052;-73
2021/11/07 08:05:26;;;;;;;30.52;4.53;;;;;;;;;;5053762;28;20045;-74
2021/11/07 08:07:52;;;;;;;20.42;3.30;;;;;;;;;;5053671;28;20041;-74
2021/11/07 08:10:19;;;;;;;19.83;3.13;;;;;;;;;;5053876;28;20399;-74
2021/11/07 08:12:45;;;;;;;16.67;3.13;;;;;;;;;;5052693;28;20037;-74
2021/11/07 08:15:13;;;;;;;17.63;2.80;;;;;;;;;;5052148;28;20146;-74
2021/11/07 08:17:39;;;;;;;10.95;2.22;;;;;;;;;;5054286;28;20064;-73
2021/11/07 08:20:08;;;;;;;15.52;3.05;;;;;;;;;;5052504;28;20175;-74
2021/11/07 08:22:36;;;;;;;21.83;3.63;;;;;;;;;;5050206;28;20052;-73
2021/11/07 08:25:09;;;;;;;11.75;3.10;;;;;;;;;;5053535;28;20393;-73
2021/11/07 08:27:36;;;;;;;18.77;3.28;;;;;;;;;;5053414;28;20154;-74
2021/11/07 08:30:04;;;;;;;21.27;3.60;;;;;;;;;;5051676;28;20068;-73
2021/11/07 08:32:30;;;;;;;20.55;3.30;;;;;;;;;;5055213;28;20119;-73
2021/11/07 08:34:56;;;;;;;18.17;3.70;;;;;;;;;;5055048;28;20052;-73
2021/11/07 08:37:31;;;;;;;18.00;2.78;;;;;;;;;;5043515;28;20539;-73
2021/11/07 08:40:00;;;;;;;16.27;3.08;;;;;;;;;;5039502;28;20053;-79
2021/11/07 08:42:38;;;;;;;16.50;3.42;;;;;;;;;;5037597;28;20061;-74
2021/11/07 09:02:15;;;;;;;27.45;4.10;;;;;;;;;;5043537;28;20393;-73
2021/11/07 09:04:56;;;;;;;22.35;3.83;;;;;;;;;;5045468;28;20138;-73
2021/11/07 09:07:25;;;;;;;18.73;4.38;;;;;;;;;;5050224;28;20114;-73
2021/11/07 09:09:59;;;;;;;27.17;4.57;;;;;;;;;;5038223;28;20098;-73
2021/11/07 09:12:26;;;;;;;28.17;4.13;;;;;;;;;;5045799;28;20076;-74
2021/11/07 09:14:53;;;;;;;22.90;4.20;;;;;;;;;;5045752;28;20052;-73
2021/11/07 09:17:20;;;;;;;24.08;3.92;;;;;;;;;;5079918;28;20053;-74
2021/11/07 09:19:49;;;;;;;30.65;4.72;;;;;;;;;;5040452;28;20053;-74
2021/11/07 09:22:30;;;;;;;18.52;3.47;;;;;;;;;;5039448;28;20037;-73
2021/11/07 09:25:00;;;;;;;15.07;3.20;;;;;;;;;;5042895;28;20146;-73
2021/11/07 09:27:37;;;;;;;19.27;3.50;;;;;;;;;;5042724;28;20067;-74
2021/11/07 09:30:07;;;;;;;25.60;3.40;;;;;;;;;;5047912;28;20049;-73
2021/11/07 09:32:42;;;;;;;19.10;3.28;;;;;;;;;;5044371;28;20721;-74
2021/11/07 09:35:19;;;;;;;20.70;3.28;;;;;;;;;;5041904;28;20078;-74
2021/11/07 09:37:51;;;;;;;23.50;4.05;;;;;;;;;;5043203;28;20151;-73
2021/11/07 09:40:20;;;;;;;17.05;3.40;;;;;;;;;;5043287;28;20095;-73
2021/11/07 09:45:21;;;;;;;25.95;4.38;;;;;;;;;;5041258;28;20049;-74
2021/11/07 09:47:54;;;;;;;;;;;;;;;;;;5037204;28;20042;-74
2021/11/07 09:50:21;;;;;;;28.83;4.57;;;;;;;;;;5042450;28;19975;-72
2021/11/07 09:52:49;;;;;;;21.88;4.53;;;;;;;;;;5041319;28;20044;-75
2021/11/07 09:55:17;;;;;;;21.98;4.72;;;;;;;;;;5040090;28;20040;-75
2021/11/07 09:57:44;;;;;;;29.02;5.10;;;;;;;;;;5040288;28;20044;-74
2021/11/07 10:00:14;;;;;;;24.65;4.05;;;;;;;;;;5061688;28;20045;-74
2021/11/07 10:02:40;;;;;;;21.83;4.90;;;;;;;;;;5041128;28;20047;-74
2021/11/07 10:05:07;;;;;;;26.63;4.72;;;;;;;;;;5039058;28;20474;-74
2021/11/07 10:07:37;;;;;;;26.00;3.78;;;;;;;;;;5039387;28;20087;-74
2021/11/07 10:10:15;;;;;;;35.72;4.00;;;;;;;;;;5043131;28;20426;-74
2021/11/07 10:12:47;;;;;;;30.30;5.28;;;;;;;;;;5037177;28;20113;-73
2021/11/07 10:15:19;;;;;;;15.40;3.70;;;;;;;;;;5038866;28;20049;-74
2021/11/07 10:17:51;;;;;;;16.73;3.42;;;;;;;;;;5038409;28;20065;-74
2021/11/07 10:22:49;;;;;;;26.85;3.42;;;;;;;;;;5037659;28;20052;-74
2021/11/07 10:25:22;;;;;;;20.83;4.22;;;;;;;;;;5039145;28;20053;-74
2021/11/07 10:27:50;;;;;;;23.08;4.07;;;;;;;;;;5034307;28;20061;-74
2021/11/07 10:30:21;;;;;;;23.10;3.78;;;;;;;;;;5038485;28;20118;-74
2021/11/07 10:33:00;;;;;;;16.55;2.72;;;;;;;;;;5069755;28;20080;-71
2021/11/07 10:38:18;;;;;;;19.00;2.70;;;;;;;;;;5031082;28;20053;-70
2021/11/07 10:40:59;;;;;;;15.10;3.22;;;;;;;;;;5031896;28;20061;-73
2021/11/07 10:43:43;;;;;;;16.10;3.08;;;;;;;;;;5026922;28;20076;-73
2021/11/07 10:46:18;;;;;;;16.95;2.97;;;;;;;;;;5038951;28;20428;-73
2021/11/07 10:54:14;;;;;;;20.65;3.40;;;;;;;;;;5050658;28;20084;-71
2021/11/07 10:56:40;;;;;;;28.08;3.80;;;;;;;;;;5042440;28;20571;-74
2021/11/07 10:59:13;;;;;;;20.52;4.32;;;;;;;;;;5043687;28;20036;-74
2021/11/07 11:01:40;;;;;;;25.17;4.10;;;;;;;;;;5039122;28;20107;-74
2021/11/07 11:04:06;;;;;;;23.58;4.07;;;;;;;;;;5040904;28;20303;-74
2021/11/07 11:06:32;;;;;;;25.75;4.90;;;;;;;;;;5040314;28;20490;-74
2021/11/07 11:09:03;;;;;;;28.13;4.47;;;;;;;;;;5039278;28;20124;-74
2021/11/07 11:11:34;;;;;;;37.13;5.20;;;;;;;;;;5039599;28;20049;-74
2021/11/07 11:14:09;;;;;;;31.70;4.60;;;;;;;;;;5071681;28;20368;-71
2021/11/07 11:16:50;;;;;;;34.10;5.68;;;;;;;;;;5042591;28;20057;-74
2021/11/07 11:32:19;;;;;;;29.25;4.40;;;;;;;;;;5046164;28;20154;-63
2021/11/07 11:34:54;;;;;;;23.92;4.55;;;;;;;;;;5047057;28;20045;-63
2021/11/07 11:37:27;;;;;;;29.08;5.15;;;;;;;;;;5049732;28;20735;-63
2021/11/07 11:40:02;;;;;;;26.60;5.27;;;;;;;;;;5045574;28;20124;-63
2021/11/07 11:42:37;;;;;;;29.15;5.10;;;;;;;;;;5047670;28;20053;-63
2021/11/07 11:45:04;;;;;;;32.63;5.47;;;;;;;;;;5045017;28;20285;-63
2021/11/07 11:47:46;;;;;;;29.73;5.03;;;;;;;;;;5043061;28;20064;-63
2021/11/07 11:50:26;;;;;;;27.35;5.45;;;;;;;;;;5044686;28;20053;-63
2021/11/07 11:53:15;;;;;;;30.40;6.13;;;;;;;;;;5030359;28;20546;-63
2021/11/07 11:55:50;;;;;;;28.60;5.80;;;;;;;;;;5041455;28;20115;-63
2021/11/07 11:58:33;;;;;;;27.63;5.30;;;;;;;;;;5042973;28;20095;-63
2021/11/07 12:01:10;;;;;;;27.75;6.22;;;;;;;;;;5041991;28;20049;-62
2021/11/07 12:06:23;;;;;;;27.25;5.72;;;;;;;;;;5046152;28;20052;-62
2021/11/07 12:09:11;;;;;;;28.85;4.82;;;;;;;;;;5049814;28;20064;-62
2021/11/07 12:11:47;;;;;;;27.45;4.97;;;;;;;;;;5048933;28;20041;-63
2021/11/07 12:14:16;;;;;;;30.30;5.95;;;;;;;;;;5038779;28;20080;-62
2021/11/07 12:16:45;;;;;;;26.83;5.07;;;;;;;;;;5043066;28;20554;-62
2021/11/07 12:19:12;;;;;;;26.08;4.57;;;;;;;;;;5042669;28;20546;-63
2021/11/07 12:21:49;;;;;;;24.23;4.53;;;;;;;;;;5040588;28;20037;-62
2021/11/07 12:24:16;;;;;;;23.40;4.63;;;;;;;;;;5041099;28;20099;-63
2021/11/07 12:26:42;;;;;;;29.52;5.68;;;;;;;;;;5047767;28;20040;-62
2021/11/07 12:29:09;;;;;;;34.63;7.05;;;;;;;;;;5043284;28;20391;-63
2021/11/07 12:31:35;;;;;;;26.65;5.55;;;;;;;;;;5044089;28;20064;-62
2021/11/07 12:34:16;;;;;;;26.02;5.80;;;;;;;;;;5042714;28;20470;-62
2021/11/07 12:42:20;;;;;;;25.23;5.88;;;;;;;;;;5042309;28;20128;-62
2021/11/07 12:44:50;;;;;;;24.70;5.28;;;;;;;;;;5045545;28;20051;-63
2021/11/07 12:47:21;;;;;;;21.23;4.82;;;;;;;;;;5045552;28;20037;-62
2021/11/07 12:49:56;;;;;;;19.17;3.42;;;;;;;;;;5045315;28;20157;-62
2021/11/07 12:52:22;;;;;;;23.25;4.50;;;;;;;;;;5053176;28;20481;-62
2021/11/07 12:54:48;;;;;;;15.43;2.90;;;;;;;;;;5050499;28;20154;-62
2021/11/07 12:57:16;;;;;;;21.23;3.22;;;;;;;;;;5051312;28;20551;-62
2021/11/07 12:59:44;;;;;;;19.02;3.50;;;;;;;;;;5052906;28;20371;-62
2021/11/07 13:02:13;;;;;;;23.60;4.38;;;;;;;;;;5051258;28;20063;-62
2021/11/07 13:04:42;;;;;;;24.55;4.40;;;;;;;;;;5051912;28;20032;-62
2021/11/07 13:07:11;;;;;;;26.48;5.40;;;;;;;;;;5051135;28;20059;-62
2021/11/07 13:09:40;;;;;;;25.23;4.88;;;;;;;;;;5050668;28;20064;-62
2021/11/07 13:12:12;;;;;;;30.55;5.07;;;;;;;;;;5049622;28;20163;-62
2021/11/07 13:14:54;;;;;;;32.50;4.70;;;;;;;;;;5043755;28;20496;-62
2021/11/07 13:20:12;;;;;;;33.20;5.10;;;;;;;;;;5052059;28;20068;-62
2021/11/07 13:23:02;;;;;;;29.60;4.95;;;;;;;;;;5031425;28;20049;-63
2021/11/07 13:25:46;;;;;;;21.17;4.25;;;;;;;;;;5035272;28;20084;-62
2021/11/07 13:28:23;;;;;;;20.08;3.90;;;;;;;;;;5043004;28;20448;-62
2021/11/07 13:31:06;;;;;;;21.38;3.78;;;;;;;;;;5044703;28;20045;-62
2021/11/07 13:33:33;;;;;;;18.50;3.42;;;;;;;;;;5019045;28;20138;-62
2021/11/07 13:36:00;;;;;;;17.35;3.42;;;;;;;;;;5040090;28;20045;-62
2021/11/07 13:38:28;;;;;;;17.85;3.22;;;;;;;;;;4999749;28;20213;-62
2021/11/07 13:40:55;;;;;;;18.08;3.53;;;;;;;;;;5001511;28;20071;-62
2021/11/07 13:43:28;;;;;;;23.55;3.65;;;;;;;;;;5038352;28;20054;-62
2021/11/07 13:45:55;;;;;;;14.32;2.50;;;;;;;;;;5035023;28;20580;-62
2021/11/07 13:48:30;;;;;;;17.38;3.53;;;;;;;;;;5042707;28;20040;-62
2021/11/07 13:50:58;;;;;;;17.95;4.50;;;;;;;;;;5044080;28;20114;-62
2021/11/07 13:53:26;;;;;;;20.88;4.35;;;;;;;;;;5040255;28;20075;-62
2021/11/07 13:55:54;;;;;;;22.35;3.90;;;;;;;;;;5043974;28;20069;-62
2021/11/07 13:58:23;;;;;;;22.23;4.15;;;;;;;;;;5045611;28;20041;-62
2021/11/07 14:00:50;;;;;;;26.80;4.40;;;;;;;;;;5042870;28;20132;-62
2021/11/07 14:03:17;;;;;;;20.30;3.80;;;;;;;;;;5046628;28;20083;-62
2021/11/07 14:05:51;;;;;;;22.67;4.13;;;;;;;;;;5046255;28;20195;-62
2021/11/07 14:08:18;;;;;;;21.17;4.55;;;;;;;;;;5043696;28;20083;-62
2021/11/07 14:10:44;;;;;;;20.13;3.28;;;;;;;;;;5045087;28;20115;-62
2021/11/07 14:13:12;;;;;;;22.67;4.32;;;;;;;;;;5044336;28;20073;-62
2021/11/07 14:15:43;;;;;;;22.40;3.78;;;;;;;;;;5047175;28;20215;-62
2021/11/07 14:18:16;;;;;;;22.90;4.47;;;;;;;;;;5057686;28;20124;-62
2021/11/07 14:20:44;;;;;;;20.23;3.50;;;;;;;;;;5046943;28;20519;-62
2021/11/07 14:23:18;;;;;;;23.83;3.75;;;;;;;;;;5038963;28;20055;-62
2021/11/07 14:25:47;;;;;;;26.08;4.88;;;;;;;;;;5046698;28;20127;-62
2021/11/07 14:28:21;;;;;;;21.98;4.20;;;;;;;;;;5046881;28;20167;-62
2021/11/07 14:30:48;;;;;;;24.38;4.20;;;;;;;;;;5045217;28;20475;-63
2021/11/07 14:33:24;;;;;;;19.33;3.88;;;;;;;;;;5047474;28;20118;-62
2021/11/07 14:35:55;;;;;;;23.75;3.83;;;;;;;;;;5041191;28;20052;-62
2021/11/07 14:38:29;;;;;;;24.27;3.75;;;;;;;;;;5040140;28;20400;-62
2021/11/07 14:41:07;;;;;;;20.20;3.65;;;;;;;;;;5043553;28;20129;-62
2021/11/07 14:43:40;;;;;;;20.58;4.30;;;;;;;;;;5042139;28;20128;-62
2021/11/07 14:46:24;;;;;;;24.70;4.22;;;;;;;;;;5043960;28;20052;-62
2021/11/07 14:48:58;;;;;;;;;;;;;;;;;;5035709;28;20084;-62
2021/11/07 14:51:34;;;;;;;30.05;4.43;;;;;;;;;;5039858;28;20391;-63
2021/11/07 14:54:13;;;;;;;21.15;3.38;;;;;;;;;;5019867;28;20130;-63
2021/11/07 14:56:49;;;;;;;22.42;3.72;;;;;;;;;;5039056;28;20060;-62
2021/11/07 14:59:41;;;;;;;23.48;4.18;;;;;;;;;;5043696;28;20124;-62
2021/11/07 15:02:49;;;;;;;17.15;3.42;;;;;;;;;;5044388;28;20518;-62
2021/11/07 15:07:53;;;;;;;18.33;3.42;;;;;;;;;;5044818;28;20556;-62
2021/11/07 15:13:13;;;;;;;23.50;2.88;;;;;;;;;;5039652;28;20118;-62
2021/11/07 15:18:22;;;;;;;27.02;5.30;;;;;;;;;;5028945;28;20148;-62
2021/11/07 15:20:57;;;;;;;19.25;3.47;;;;;;;;;;5039988;28;20049;-62
2021/11/07 15:23:26;;;;;;;29.58;5.25;;;;;;;;;;5042764;28;20101;-63
2021/11/07 15:25:52;;;;;;;18.30;3.40;;;;;;;;;;5038881;28;20054;-62
2021/11/07 15:28:18;;;;;;;19.42;3.85;;;;;;;;;;5045175;28;20116;-62
2021/11/07 15:30:45;;;;;;;21.40;4.40;;;;;;;;;;5041712;28;20056;-62
2021/11/07 15:33:13;;;;;;;24.83;3.65;;;;;;;;;;5038505;28;20378;-62
2021/11/07 15:35:48;;;;;;;22.42;3.83;;;;;;;;;;5043750;28;20049;-61
2021/11/07 15:38:15;;;;;;;27.30;4.45;;;;;;;;;;5037500;28;20400;-62
2021/11/07 15:40:42;;;;;;;17.58;3.22;;;;;;;;;;5053466;28;20527;-62
2021/11/07 15:43:17;;;;;;;13.95;2.78;;;;;;;;;;5048232;28;20091;-63
2021/11/07 15:48:32;;;;;;;16.08;3.42;;;;;;;;;;5051099;28;20041;-62
2021/11/07 15:51:08;;;;;;;15.23;2.80;;;;;;;;;;5053242;28;20045;-62
2021/11/07 15:53:56;;;;;;;14.55;2.80;;;;;;;;;;5049897;28;20040;-62
2021/11/07 16:01:36;;;;;;;17.50;2.92;;;;;;;;;;5053487;28;20135;-62
2021/11/07 16:04:24;;;;;;;18.23;2.95;;;;;;;;;;5054072;28;20064;-62
2021/11/07 16:06:58;;;;;;;20.10;4.05;;;;;;;;;;5047975;28;20110;-61
2021/11/07 16:09:36;;;;;;;15.25;2.47;;;;;;;;;;5051541;28;20098;-62
2021/11/07 16:14:57;;;;;;;11.73;2.58;;;;;;;;;;5051123;28;20080;-62
2021/11/07 16:17:27;;;;;;;15.75;2.40;;;;;;;;;;5046145;28;20122;-62
2021/11/07 16:19:54;;;;;;;21.65;3.03;;;;;;;;;;5051755;28;20068;-62
2021/11/07 16:22:21;;;;;;;19.40;3.60;;;;;;;;;;5048955;28;20416;-62
2021/11/07 16:24:49;;;;;;;16.80;2.80;;;;;;;;;;5042627;28;20482;-61